Time;durP1;ratioP1;P1;durP2;ratioP2;P2;SDS_P1;SDS_P2;PMS_P1;PMS_P2;Temp;Humidity;BMP_temperature;BMP_pressure;BME280_temperature;BME280_humidity;BME280_pressure;Samples;Min_cycle;Max_cycle;Signal;HPM_P1;HPM_P2
2022/07/23 00:00:08;;;;;;;1.33;0.88;;;;;;;16.01;86.19;101909.44;5081689;28;20034;-70
2022/07/23 00:02:33;;;;;;;1.15;0.68;;;;;;;15.99;86.38;101895.44;5062498;28;20031;-70
2022/07/23 00:04:59;;;;;;;2.17;0.75;;;;;;;15.91;86.63;101895.41;5079330;28;20413;-70
2022/07/23 00:07:24;;;;;;;1.38;0.57;;;;;;;15.83;87.98;101884.75;5077246;28;20012;-70
2022/07/23 00:09:49;;;;;;;1.85;0.57;;;;;;;15.85;87.75;101901.34;5082649;28;20484;-70
2022/07/23 00:12:15;;;;;;;0.88;0.60;;;;;;;15.75;87.44;101890.03;5079347;28;20051;-70
2022/07/23 00:14:40;;;;;;;2.03;0.82;;;;;;;15.66;87.54;101880.25;5080167;28;20021;-70
2022/07/23 00:17:06;;;;;;;1.85;0.57;;;;;;;15.75;86.58;101895.34;5078302;28;20028;-70
2022/07/23 00:19:31;;;;;;;2.60;0.55;;;;;;;15.72;86.60;101895.63;5078529;28;20047;-71
2022/07/23 00:21:57;;;;;;;0.60;0.30;;;;;;;15.62;86.73;101880.59;5078137;28;20047;-70
2022/07/23 00:24:22;;;;;;;2.33;0.57;;;;;;;15.65;86.59;101879.44;5077388;28;20091;-70
2022/07/23 00:26:47;;;;;;;1.00;0.55;;;;;;;15.68;87.15;101894.25;5084493;28;20082;-70
2022/07/23 00:29:13;;;;;;;1.10;0.35;;;;;;;15.67;88.64;101897.91;5077493;28;20039;-70
2022/07/23 00:31:38;;;;;;;1.65;0.73;;;;;;;15.64;89.35;101889.25;5076536;28;20104;-70
2022/07/23 00:34:03;;;;;;;1.48;0.93;;;;;;;15.57;90.84;101888.22;5076275;28;20534;-71
2022/07/23 00:36:31;;;;;;;2.08;0.93;;;;;;;15.25;92.49;101867.56;5081420;28;20028;-70
2022/07/23 00:38:56;;;;;;;3.10;0.70;;;;;;;15.31;93.35;101890.03;5077996;28;20408;-70
2022/07/23 00:41:21;;;;;;;4.28;0.90;;;;;;;15.18;93.91;101882.47;5085534;28;20119;-70
2022/07/23 00:43:47;;;;;;;2.85;0.90;;;;;;;15.09;94.89;101892.22;5076254;28;20074;-70
2022/07/23 00:46:12;;;;;;;1.40;0.77;;;;;;;15.03;95.22;101884.84;5081924;28;20115;-70
2022/07/23 00:48:37;;;;;;;2.35;1.35;;;;;;;15.02;94.97;101888.47;5075772;28;20053;-70
2022/07/23 00:51:03;;;;;;;5.53;1.30;;;;;;;15.00;95.06;101890.47;5083710;28;20032;-70
2022/07/23 00:53:28;;;;;;;1.88;0.93;;;;;;;14.95;95.62;101879.47;5079525;28;20023;-70
2022/07/23 00:55:54;;;;;;;1.23;0.73;;;;;;;14.86;96.34;101883.03;5082658;28;20040;-70
2022/07/23 00:58:19;;;;;;;5.25;1.08;;;;;;;14.82;96.96;101888.66;5081967;28;20036;-69
2022/07/23 01:00:45;;;;;;;1.70;1.20;;;;;;;14.84;96.27;101885.03;5076744;28;20047;-70
2022/07/23 01:03:11;;;;;;;1.08;0.80;;;;;;;14.82;95.21;101870.03;5076710;28;20107;-70
2022/07/23 01:05:36;;;;;;;2.80;1.13;;;;;;;14.90;95.51;101879.94;5077974;28;20028;-71
2022/07/23 01:08:02;;;;;;;1.33;0.95;;;;;;;14.91;96.03;101872.78;5079979;28;20043;-70
2022/07/23 01:10:34;;;;;;;2.42;1.30;;;;;;;14.89;96.50;101877.41;5079952;28;20115;-70
2022/07/23 01:13:05;;;;;;;4.43;1.35;;;;;;;14.92;95.58;101871.81;5074106;28;20043;-70
2022/07/23 01:15:32;;;;;;;1.67;1.10;;;;;;;14.82;95.48;101845.31;5074999;28;20017;-70
2022/07/23 01:17:58;;;;;;;2.40;1.25;;;;;;;14.85;97.20;101865.41;5077687;28;20029;-70
2022/07/23 01:20:23;;;;;;;2.03;1.13;;;;;;;14.67;98.25;101874.22;5078227;28;20023;-70
2022/07/23 01:22:49;;;;;;;2.30;1.50;;;;;;;14.55;98.79;101855.03;5061103;28;20438;-70
2022/07/23 01:25:15;;;;;;;3.05;1.20;;;;;;;14.61;99.27;101864.19;5080051;28;20021;-70
2022/07/23 01:27:40;;;;;;;2.97;1.63;;;;;;;14.64;99.33;101869.22;5073961;28;20058;-70
2022/07/23 01:30:06;;;;;;;1.88;1.00;;;;;;;14.66;98.85;101856.63;5078627;28;20079;-70
2022/07/23 01:32:32;;;;;;;6.55;1.70;;;;;;;14.66;98.96;101859.28;5077490;28;20040;-70
2022/07/23 01:34:57;;;;;;;4.50;2.00;;;;;;;14.71;98.62;101859.66;5080733;28;20119;-70
2022/07/23 01:37:23;;;;;;;1.23;1.10;;;;;;;14.70;98.35;101847.38;5060628;28;20021;-70
2022/07/23 01:39:48;;;;;;;2.15;0.90;;;;;;;14.70;97.16;101841.19;5081524;28;20127;-71
2022/07/23 01:42:13;;;;;;;1.55;1.02;;;;;;;14.80;96.17;101853.41;5078442;28;20020;-71
2022/07/23 01:44:39;;;;;;;3.83;1.38;;;;;;;14.89;96.15;101853.50;5074540;28;20111;-70
2022/07/23 01:47:04;;;;;;;3.28;1.80;;;;;;;14.82;97.04;101847.97;5077155;28;20020;-71
2022/07/23 01:49:30;;;;;;;1.33;0.90;;;;;;;14.77;97.34;101851.06;5075080;28;20036;-71
2022/07/23 01:52:01;;;;;;;4.13;1.42;;;;;;;14.71;98.14;101850.84;5075606;28;20028;-71
2022/07/23 01:54:32;;;;;;;4.72;1.55;;;;;;;14.52;99.17;101822.59;5082003;28;20068;-70
2022/07/23 01:56:59;;;;;;;2.95;1.25;;;;;;;14.66;99.05;101850.50;5080159;28;20395;-70
2022/07/23 01:59:26;;;;;;;1.85;1.38;;;;;;;14.71;98.96;101851.69;5074817;28;20024;-71
2022/07/23 02:01:51;;;;;;;2.00;0.77;;;;;;;14.71;97.33;101826.94;5078719;28;20394;-70
2022/07/23 02:04:18;;;;;;;1.80;1.38;;;;;;;14.85;97.38;101831.72;5076967;28;20447;-70
2022/07/23 02:06:44;;;;;;;2.95;1.88;;;;;;;14.74;98.11;101827.47;5078430;28;20542;-70
2022/07/23 02:09:09;;;;;;;1.15;0.98;;;;;;;14.80;98.29;101824.19;5074418;28;20046;-70
2022/07/23 02:11:34;;;;;;;1.58;0.93;;;;;;;14.84;98.00;101824.72;5074356;28;20059;-70
2022/07/23 02:14:00;;;;;;;1.05;0.80;;;;;;;14.94;96.28;101824.66;5080889;28;20059;-70
2022/07/23 02:16:25;;;;;;;1.58;1.10;;;;;;;15.00;95.56;101824.00;5080574;28;20025;-70
2022/07/23 02:18:51;;;;;;;1.58;0.98;;;;;;;15.05;94.60;101824.41;5078154;28;20127;-71
2022/07/23 02:21:16;;;;;;;4.18;1.55;;;;;;;14.98;93.44;101818.00;5080968;28;20027;-70
2022/07/23 02:23:41;;;;;;;1.48;1.08;;;;;;;15.10;93.97;101815.94;5080596;28;20077;-70
2022/07/23 02:26:07;;;;;;;1.30;1.00;;;;;;;15.14;93.02;101819.97;5057727;28;20028;-70
2022/07/23 02:28:32;;;;;;;1.50;0.77;;;;;;;15.09;92.60;101809.81;5077207;28;20032;-70
2022/07/23 02:30:57;;;;;;;1.77;1.13;;;;;;;15.20;92.53;101825.50;5079009;28;20020;-70
2022/07/23 02:33:23;;;;;;;2.47;0.95;;;;;;;15.25;92.11;101830.34;5077001;28;20070;-70
2022/07/23 02:35:48;;;;;;;1.67;0.98;;;;;;;15.28;91.12;101821.19;5076544;28;20696;-70
2022/07/23 02:38:14;;;;;;;1.85;0.98;;;;;;;15.28;91.11;101823.84;5077771;28;20420;-71
2022/07/23 02:40:39;;;;;;;2.08;1.17;;;;;;;15.29;90.89;101825.53;5075412;28;20082;-70
2022/07/23 02:43:05;;;;;;;1.73;1.35;;;;;;;15.30;91.04;101816.56;5078623;28;20019;-70
2022/07/23 02:45:30;;;;;;;2.45;0.98;;;;;;;15.32;91.34;101823.38;5078699;28;20096;-70
2022/07/23 02:47:55;;;;;;;1.40;1.17;;;;;;;15.34;91.71;101817.91;5077749;28;20111;-70
2022/07/23 02:50:21;;;;;;;4.18;1.58;;;;;;;15.21;92.87;101802.38;5078575;28;20333;-70
2022/07/23 02:52:46;;;;;;;2.08;1.17;;;;;;;15.28;92.35;101830.00;5075793;28;20040;-70
2022/07/23 02:55:11;;;;;;;1.38;1.05;;;;;;;15.28;92.82;101824.69;5077168;28;20507;-70
2022/07/23 02:57:37;;;;;;;2.17;0.85;;;;;;;15.28;92.92;101829.19;5079014;28;20028;-70
2022/07/23 03:00:05;;;;;;;1.83;1.58;;;;;;;15.25;93.19;101825.00;5077452;28;20503;-70
2022/07/23 03:02:31;;;;;;;1.60;1.02;;;;;;;15.22;93.95;101826.16;5079053;28;20028;-70
2022/07/23 03:04:56;;;;;;;2.45;1.42;;;;;;;15.22;94.25;101825.31;5078071;28;20031;-70
2022/07/23 03:07:21;;;;;;;1.95;1.40;;;;;;;15.14;95.15;101812.81;5078728;28;20028;-71
2022/07/23 03:09:47;;;;;;;2.13;1.23;;;;;;;15.03;96.13;101815.72;5077070;28;20071;-71
2022/07/23 03:12:13;;;;;;;1.85;1.17;;;;;;;15.01;96.68;101815.88;5078175;28;20449;-70
2022/07/23 03:14:38;;;;;;;1.55;1.13;;;;;;;14.92;96.44;101816.00;5078190;28;20015;-70
2022/07/23 03:17:04;;;;;;;1.80;1.00;;;;;;;14.97;95.85;101817.19;5074789;28;20119;-69
2022/07/23 03:19:29;;;;;;;1.58;1.00;;;;;;;15.02;94.95;101817.56;5076348;28;20024;-70
2022/07/23 03:21:54;;;;;;;2.13;1.30;;;;;;;15.08;94.36;101813.44;5076535;28;20376;-70
2022/07/23 03:24:20;;;;;;;0.68;0.50;;;;;;;15.11;93.97;101813.13;5078087;28;20024;-70
2022/07/23 03:26:45;;;;;;;3.42;1.15;;;;;;;15.13;94.24;101816.44;5057596;28;20036;-70
2022/07/23 03:29:11;;;;;;;5.65;0.90;;;;;;;15.07;93.56;101800.28;5075976;28;20357;-70
2022/07/23 03:31:36;;;;;;;2.13;1.15;;;;;;;15.15;94.05;101808.31;5075939;28;20070;-70
2022/07/23 03:34:02;;;;;;;2.35;1.08;;;;;;;15.15;94.12;101817.13;5079696;28;20062;-70
2022/07/23 03:36:27;;;;;;;1.00;0.90;;;;;;;15.16;93.62;101816.16;5080471;28;20051;-70
2022/07/23 03:38:53;;;;;;;2.13;1.70;;;;;;;15.20;93.13;101819.34;5076227;28;20028;-70
2022/07/23 03:41:20;;;;;;;1.50;0.90;;;;;;;15.23;93.12;101821.69;5073263;28;20067;-70
2022/07/23 03:43:45;;;;;;;2.00;1.00;;;;;;;15.18;93.50;101821.31;5077073;28;20016;-71
2022/07/23 03:46:11;;;;;;;3.47;1.13;;;;;;;15.20;93.71;101814.84;5076250;28;20036;-71
2022/07/23 03:48:37;;;;;;;1.98;0.75;;;;;;;15.23;92.71;101827.00;5076476;28;20416;-70
2022/07/23 03:51:03;;;;;;;1.85;0.80;;;;;;;15.27;92.98;101822.22;5078297;28;20073;-70
2022/07/23 03:53:29;;;;;;;3.28;1.20;;;;;;;15.20;92.75;101812.19;5078684;28;20078;-70
2022/07/23 03:55:54;;;;;;;1.58;1.00;;;;;;;15.27;92.05;101824.88;5077101;28;20037;-70
2022/07/23 03:58:19;;;;;;;1.63;0.95;;;;;;;15.29;92.93;101823.72;5078086;28;20036;-70
2022/07/23 04:00:45;;;;;;;1.17;0.80;;;;;;;15.30;93.19;101828.03;5078222;28;20088;-70
2022/07/23 04:03:10;;;;;;;5.43;1.30;;;;;;;15.28;93.47;101821.19;5076346;28;20557;-70
2022/07/23 04:05:35;;;;;;;1.85;0.95;;;;;;;15.30;92.92;101832.53;5078329;28;20028;-71
2022/07/23 04:08:01;;;;;;;2.55;1.40;;;;;;;15.30;92.75;101837.84;5076688;28;20039;-70
2022/07/23 04:10:26;;;;;;;1.48;1.20;;;;;;;15.34;92.32;101833.88;5077936;28;20020;-70
2022/07/23 04:12:52;;;;;;;1.30;0.82;;;;;;;15.38;91.90;101835.25;5079720;28;20028;-70
2022/07/23 04:15:17;;;;;;;1.42;0.95;;;;;;;15.40;92.81;101833.25;5055985;28;20111;-70
2022/07/23 04:17:43;;;;;;;1.42;0.90;;;;;;;15.41;93.44;101832.25;5080071;28;20024;-70
2022/07/23 04:20:10;;;;;;;1.45;1.02;;;;;;;15.39;94.24;101831.56;5079246;28;20020;-71
2022/07/23 04:22:36;;;;;;;1.58;1.08;;;;;;;15.35;95.77;101827.56;5080165;28;20023;-71
2022/07/23 04:25:01;;;;;;;1.80;1.33;;;;;;;15.33;96.66;101832.19;5080062;28;20481;-71
2022/07/23 04:27:27;;;;;;;2.17;1.35;;;;;;;15.35;96.88;101831.06;5080427;28;20028;-71
2022/07/23 04:29:52;;;;;;;1.50;1.23;;;;;;;15.36;96.16;101837.22;5076419;28;20050;-71
2022/07/23 04:32:17;;;;;;;4.18;1.00;;;;;;;15.34;96.14;101826.72;5074514;28;20032;-71
2022/07/23 04:34:43;;;;;;;3.00;1.10;;;;;;;15.37;95.90;101830.88;5079803;28;20032;-71
2022/07/23 04:37:08;;;;;;;0.80;0.60;;;;;;;15.46;96.79;101832.63;5077558;28;20055;-71
2022/07/23 04:39:33;;;;;;;1.40;0.77;;;;;;;15.46;96.46;101827.31;5078153;28;20025;-71
2022/07/23 04:41:59;;;;;;;1.77;0.80;;;;;;;15.47;97.40;101836.94;5079992;28;20020;-71
2022/07/23 04:44:24;;;;;;;0.82;0.60;;;;;;;15.52;97.61;101833.81;5077057;28;20029;-71
2022/07/23 04:46:49;;;;;;;1.17;1.00;;;;;;;15.54;97.94;101839.81;5083146;28;20032;-71
2022/07/23 04:49:15;;;;;;;1.35;0.98;;;;;;;15.60;98.33;101834.69;5075447;28;20496;-71
2022/07/23 04:51:40;;;;;;;6.88;1.20;;;;;;;15.64;97.54;101830.72;5078009;28;20629;-71
2022/07/23 04:54:06;;;;;;;1.52;1.00;;;;;;;15.62;97.37;101827.38;5079521;28;20028;-71
2022/07/23 04:56:31;;;;;;;2.42;1.50;;;;;;;15.72;97.61;101840.59;5078138;28;20024;-71
2022/07/23 04:58:57;;;;;;;3.92;0.98;;;;;;;15.79;97.45;101840.81;5079098;28;20043;-71
2022/07/23 05:01:22;;;;;;;1.83;1.15;;;;;;;15.84;96.87;101846.47;5077448;28;20574;-71
2022/07/23 05:03:48;;;;;;;3.90;2.75;;;;;;;15.92;96.92;101833.19;5076561;28;20058;-71
2022/07/23 05:06:14;;;;;;;2.50;1.40;;;;;;;15.95;95.93;101837.34;5076351;28;20029;-71
2022/07/23 05:08:39;;;;;;;1.52;1.08;;;;;;;15.86;96.51;101817.84;5081969;28;20101;-71
2022/07/23 05:11:05;;;;;;;2.50;1.20;;;;;;;16.01;95.70;101845.53;5077708;28;20155;-71
2022/07/23 05:13:30;;;;;;;1.70;1.13;;;;;;;16.06;95.98;101852.22;5076974;28;20151;-71
2022/07/23 05:15:56;;;;;;;1.63;0.98;;;;;;;16.12;96.08;101849.72;5077436;28;20028;-71
2022/07/23 05:18:21;;;;;;;1.98;0.90;;;;;;;16.03;94.86;101835.56;5079843;28;20540;-71
2022/07/23 05:20:47;;;;;;;1.50;0.85;;;;;;;16.20;94.20;101857.75;5077203;28;20043;-71
2022/07/23 05:23:12;;;;;;;1.98;1.17;;;;;;;16.25;93.97;101851.94;5081780;28;20486;-71
2022/07/23 05:25:38;;;;;;;1.98;1.15;;;;;;;16.33;94.17;101853.75;5075714;28;20036;-71
2022/07/23 05:28:03;;;;;;;1.15;0.70;;;;;;;16.44;93.61;101859.63;5081162;28;20028;-71
2022/07/23 05:30:28;;;;;;;2.17;1.48;;;;;;;16.58;93.05;101854.66;5078918;28;20021;-71
2022/07/23 05:32:54;;;;;;;2.17;1.42;;;;;;;16.74;93.23;101859.97;5078162;28;20036;-71
2022/07/23 05:35:19;;;;;;;1.30;0.90;;;;;;;16.85;91.99;101857.03;5078188;28;20020;-71
2022/07/23 05:37:45;;;;;;;1.63;0.90;;;;;;;16.92;91.37;101861.69;5075529;28;20293;-71
2022/07/23 05:40:11;;;;;;;1.70;1.08;;;;;;;17.06;90.62;101861.03;5069330;28;20023;-71
2022/07/23 05:42:38;;;;;;;1.00;0.70;;;;;;;17.14;90.02;101857.53;5068979;28;20040;-71
2022/07/23 05:45:04;;;;;;;1.52;0.98;;;;;;;17.03;90.10;101842.69;5069539;28;20380;-71
2022/07/23 05:47:40;;;;;;;2.30;1.00;;;;;;;17.20;89.12;101863.00;5071814;28;20027;-71
2022/07/23 05:50:06;;;;;;;2.15;0.88;;;;;;;17.31;89.05;101871.66;5072442;28;20041;-71
2022/07/23 05:52:31;;;;;;;1.42;0.77;;;;;;;17.38;89.58;101872.66;5076284;28;20518;-71
2022/07/23 05:54:56;;;;;;;2.50;0.70;;;;;;;17.45;89.45;101868.28;5073323;28;20252;-70
2022/07/23 05:57:22;;;;;;;1.38;1.05;;;;;;;17.65;89.21;101866.06;5072549;28;20745;-70
2022/07/23 05:59:47;;;;;;;2.55;1.17;;;;;;;17.78;87.36;101877.03;5069177;28;20502;-70
2022/07/23 06:02:12;;;;;;;2.40;1.00;;;;;;;17.75;87.87;101868.56;5071569;28;20494;-71
2022/07/23 06:04:38;;;;;;;0.98;0.80;;;;;;;17.85;88.06;101869.19;5069955;28;20424;-71
2022/07/23 06:07:03;;;;;;;1.27;1.05;;;;;;;17.95;86.55;101867.16;5076664;28;20043;-71
2022/07/23 06:09:28;;;;;;;1.10;0.50;;;;;;;17.94;85.08;101865.47;5073150;28;20035;-71
2022/07/23 06:11:54;;;;;;;2.53;1.38;;;;;;;18.00;85.02;101872.81;5073229;28;20425;-71
2022/07/23 06:14:19;;;;;;;1.15;0.60;;;;;;;17.99;84.94;101876.50;5065319;28;20031;-71
2022/07/23 06:16:44;;;;;;;1.40;0.75;;;;;;;17.93;83.99;101871.84;5073778;28;20028;-71
2022/07/23 06:19:10;;;;;;;1.33;0.75;;;;;;;17.89;85.36;101870.50;5070379;28;20063;-71
2022/07/23 06:21:35;;;;;;;0.77;0.52;;;;;;;17.96;85.48;101866.13;5069667;28;20074;-71
2022/07/23 06:24:01;;;;;;;2.53;0.40;;;;;;;18.04;84.98;101866.09;5070109;28;20522;-70
2022/07/23 06:26:26;;;;;;;3.08;0.43;;;;;;;18.18;83.80;101869.03;5070712;28;20029;-71
2022/07/23 06:28:52;;;;;;;1.02;0.63;;;;;;;18.35;83.65;101862.59;5070877;28;20052;-71
2022/07/23 06:31:17;;;;;;;0.60;0.47;;;;;;;18.36;82.51;101840.22;5070350;28;20036;-71
2022/07/23 06:33:42;;;;;;;1.20;0.63;;;;;;;18.49;81.73;101861.84;5074988;28;20043;-70
2022/07/23 06:36:08;;;;;;;0.70;0.52;;;;;;;18.64;82.25;101874.44;5075406;28;20028;-71
2022/07/23 06:38:33;;;;;;;0.88;0.60;;;;;;;18.66;79.83;101870.59;5067101;28;20085;-71
2022/07/23 06:40:58;;;;;;;0.73;0.40;;;;;;;18.81;80.44;101875.16;5067930;28;20094;-71
2022/07/23 06:43:24;;;;;;;0.73;0.32;;;;;;;18.88;79.06;101885.00;5072802;28;20123;-71
2022/07/23 06:45:49;;;;;;;1.02;0.30;;;;;;;18.96;78.62;101877.91;5066675;28;20063;-71
2022/07/23 06:48:14;;;;;;;0.75;0.45;;;;;;;18.93;79.67;101889.78;5046239;28;20075;-71
2022/07/23 06:50:40;;;;;;;0.88;0.50;;;;;;;18.86;79.16;101891.53;5065762;28;20033;-71
2022/07/23 06:53:05;;;;;;;1.00;0.70;;;;;;;18.85;78.92;101889.84;5069163;28;20342;-70
2022/07/23 06:55:31;;;;;;;0.40;0.28;;;;;;;18.82;79.06;101893.72;5070917;28;20021;-70
2022/07/23 06:57:56;;;;;;;0.63;0.40;;;;;;;18.77;78.42;101888.06;5069038;28;20024;-70
2022/07/23 07:00:21;;;;;;;0.85;0.55;;;;;;;18.71;78.91;101892.25;5068683;28;20017;-70
2022/07/23 07:02:47;;;;;;;0.65;0.50;;;;;;;18.73;79.11;101894.78;5048720;28;20206;-71
2022/07/23 07:05:12;;;;;;;0.82;0.40;;;;;;;18.86;78.97;101891.53;5065083;28;20037;-71
2022/07/23 07:07:38;;;;;;;3.00;0.77;;;;;;;18.95;78.92;101898.47;5070326;28;20157;-71
2022/07/23 07:10:03;;;;;;;0.47;0.30;;;;;;;18.96;77.87;101900.13;5052027;28;20056;-71
2022/07/23 07:12:29;;;;;;;0.77;0.73;;;;;;;18.91;78.50;101908.69;5071924;28;20036;-71
2022/07/23 07:14:54;;;;;;;1.20;0.60;;;;;;;18.81;79.48;101915.28;5068229;28;20094;-71
2022/07/23 07:17:20;;;;;;;1.17;0.70;;;;;;;18.88;79.12;101925.13;5051255;28;20036;-71
2022/07/23 07:19:45;;;;;;;1.88;0.60;;;;;;;19.02;78.92;101920.81;5068838;28;20033;-71
2022/07/23 07:22:10;;;;;;;0.57;0.40;;;;;;;19.07;77.73;101917.59;5067678;28;20408;-71
2022/07/23 07:24:36;;;;;;;0.93;0.32;;;;;;;19.20;77.17;101917.81;5068759;28;20055;-70
2022/07/23 07:27:01;;;;;;;0.25;0.15;;;;;;;19.27;77.21;101923.28;5059294;28;20036;-70
2022/07/23 07:29:28;;;;;;;0.35;0.30;;;;;;;19.38;76.21;101924.69;5068157;28;20024;-71
2022/07/23 07:31:53;;;;;;;0.60;0.30;;;;;;;19.51;75.29;101922.19;5066161;28;20055;-71
2022/07/23 07:34:18;;;;;;;0.32;0.15;;;;;;;19.93;76.63;101924.28;5068440;28;20119;-71
2022/07/23 07:36:44;;;;;;;0.50;0.30;;;;;;;20.75;71.43;101927.72;5068974;28;20036;-70
2022/07/23 07:39:10;;;;;;;0.30;0.28;;;;;;;21.31;67.66;101925.13;5071777;28;20096;-71
2022/07/23 07:41:35;;;;;;;0.28;0.20;;;;;;;22.02;66.37;101934.91;5067641;28;20036;-71
2022/07/23 07:44:01;;;;;;;2.08;0.20;;;;;;;23.32;64.33;101932.97;5069323;28;20024;-70
2022/07/23 07:46:27;;;;;;;0.63;0.30;;;;;;;24.21;58.85;101923.41;5066310;28;20028;-71
2022/07/23 07:48:53;;;;;;;0.13;0.10;;;;;;;24.34;57.61;101937.88;5068462;28;20068;-71
2022/07/23 07:51:18;;;;;;;3.55;0.40;;;;;;;24.34;57.92;101943.25;5070954;28;20086;-71
2022/07/23 07:53:44;;;;;;;0.25;0.13;;;;;;;24.07;57.15;101942.56;5071100;28;20024;-71
2022/07/23 07:56:09;;;;;;;0.50;0.20;;;;;;;24.02;57.78;101952.13;5068269;28;20217;-71
2022/07/23 07:58:35;;;;;;;0.15;0.08;;;;;;;23.89;57.61;101952.16;5071215;28;20028;-71
2022/07/23 08:01:00;;;;;;;2.45;0.30;;;;;;;23.90;57.69;101932.22;5072530;28;20036;-71
2022/07/23 08:03:26;;;;;;;1.50;0.20;;;;;;;24.16;56.34;101958.28;5072535;28;20036;-71
2022/07/23 08:05:51;;;;;;;0.45;0.20;;;;;;;23.84;56.88;101962.72;5074987;28;20025;-71
2022/07/23 08:08:17;;;;;;;0.30;0.10;;;;;;;23.91;57.08;101955.47;5073647;28;20024;-71
2022/07/23 08:10:43;;;;;;;0.98;0.57;;;;;;;23.93;55.23;101958.78;5075444;28;20044;-71
2022/07/23 08:13:13;;;;;;;0.30;0.20;;;;;;;23.89;56.08;101959.41;5073948;28;20036;-71
2022/07/23 08:15:38;;;;;;;0.30;0.20;;;;;;;23.84;55.43;101959.22;5072967;28;20040;-71
2022/07/23 08:18:04;;;;;;;1.20;0.47;;;;;;;23.92;54.97;101964.38;5069708;28;20029;-71
2022/07/23 08:20:29;;;;;;;1.10;0.10;;;;;;;23.69;55.73;101952.19;5071954;28;20477;-71
2022/07/23 08:23:06;;;;;;;0.30;0.20;;;;;;;23.72;55.90;101949.06;5072941;28;20039;-71
2022/07/23 08:25:36;;;;;;;0.10;0.10;;;;;;;24.14;56.89;101946.88;5071123;28;20024;-71
2022/07/23 08:28:08;;;;;;;0.20;0.17;;;;;;;25.08;53.69;101957.16;5071380;28;20030;-71
2022/07/23 08:30:35;;;;;;;0.52;0.52;;;;;;;25.49;52.65;101950.38;5075623;28;20025;-71
2022/07/23 08:33:07;;;;;;;0.20;0.10;;;;;;;26.23;51.93;101956.66;5070907;28;20040;-71
2022/07/23 08:35:38;;;;;;;0.28;0.20;;;;;;;26.77;50.18;101956.78;5079820;28;20041;-71
2022/07/23 08:38:09;;;;;;;0.40;0.20;;;;;;;26.81;50.04;101969.63;5073018;28;20361;-71
2022/07/23 08:40:37;;;;;;;0.68;0.17;;;;;;;26.44;49.60;101964.28;5072903;28;20017;-72
2022/07/23 08:43:08;;;;;;;1.65;0.50;;;;;;;26.03;50.77;101956.91;5074514;28;20051;-71
2022/07/23 08:45:39;;;;;;;3.05;2.80;;;;;;;26.18;51.16;101965.47;5073677;28;20524;-71
2022/07/23 08:48:07;;;;;;;0.50;0.30;;;;;;;26.19;51.43;101966.28;5072156;28;20024;-71
2022/07/23 08:50:36;;;;;;;0.40;0.15;;;;;;;25.77;52.37;101942.59;5074255;28;20033;-71
2022/07/23 08:53:02;;;;;;;0.43;0.20;;;;;;;26.00;50.91;101957.34;5069873;28;20024;-71
2022/07/23 08:55:28;;;;;;;0.15;0.10;;;;;;;27.14;49.28;101956.63;5077877;28;20403;-71
2022/07/23 08:57:53;;;;;;;1.15;0.60;;;;;;;27.04;48.37;101958.00;5072263;28;20027;-71
2022/07/23 09:00:20;;;;;;;0.40;0.20;;;;;;;26.53;49.76;101951.25;5071481;28;20077;-71
2022/07/23 09:02:46;;;;;;;0.10;0.10;;;;;;;26.93;47.89;101961.53;5053577;28;20051;-71
2022/07/23 09:05:13;;;;;;;0.30;0.10;;;;;;;26.91;48.44;101960.09;5076355;28;20332;-71
2022/07/23 09:08:04;;;;;;;0.40;0.20;;;;;;;27.21;48.50;101955.47;5079723;28;20024;-71
2022/07/23 09:10:29;;;;;;;0.57;0.20;;;;;;;27.37;47.13;101950.41;5072802;28;20059;-71
2022/07/23 09:12:55;;;;;;;0.45;0.28;;;;;;;27.21;47.10;101957.31;5077758;28;20496;-70
2022/07/23 09:15:20;;;;;;;0.20;0.10;;;;;;;26.91;48.12;101958.22;5080251;28;20028;-70
2022/07/23 09:17:46;;;;;;;1.38;0.25;;;;;;;26.83;49.71;101961.28;5079914;28;20055;-72
2022/07/23 09:20:16;;;;;;;1.63;0.10;;;;;;;27.14;47.82;101956.63;5081918;28;20161;-72
2022/07/23 09:22:46;;;;;;;;;;;;;;;27.15;45.86;101948.25;5071336;28;20016;-72
2022/07/23 09:25:19;;;;;;;0.20;0.10;;;;;;;27.12;46.46;101950.59;5080320;28;20000;-70
2022/07/23 09:27:49;;;;;;;2.67;0.30;;;;;;;26.49;48.39;101963.59;5070624;28;20056;-70
2022/07/23 09:30:14;;;;;;;0.50;0.20;;;;;;;26.28;48.94;101959.50;5075693;28;20476;-70
2022/07/23 09:32:40;;;;;;;0.70;0.20;;;;;;;26.82;49.43;101956.91;5070865;28;20023;-70
2022/07/23 09:35:06;;;;;;;1.95;0.20;;;;;;;27.21;47.16;101960.88;5070147;28;20050;-70
2022/07/23 09:37:32;;;;;;;0.17;0.00;;;;;;;27.05;47.74;101964.28;5071182;28;20032;-70
2022/07/23 09:40:06;;;;;;;0.98;0.20;;;;;;;26.70;49.13;101966.88;5071062;28;20021;-71
2022/07/23 09:42:31;;;;;;;0.45;0.13;;;;;;;26.26;49.87;101973.28;5078103;28;20020;-70
2022/07/23 09:44:58;;;;;;;0.20;0.17;;;;;;;26.38;50.73;101969.78;5072576;28;20025;-70
2022/07/23 09:47:27;;;;;;;0.10;0.10;;;;;;;26.50;50.42;101972.53;5079364;28;20028;-70
2022/07/23 09:49:59;;;;;;;0.47;0.13;;;;;;;26.80;49.89;101962.53;5077107;28;20033;-70
2022/07/23 09:52:30;;;;;;;0.85;0.30;;;;;;;27.34;49.65;101965.25;5081289;28;20497;-70
2022/07/23 09:55:05;;;;;;;1.85;0.30;;;;;;;27.73;47.34;101960.16;5075150;28;20048;-70
2022/07/23 09:57:32;;;;;;;0.43;0.10;;;;;;;27.53;47.38;101965.97;5071534;28;20032;-70
2022/07/23 10:00:00;;;;;;;0.20;0.15;;;;;;;27.77;46.97;101965.97;5071601;28;20031;-70
2022/07/23 10:02:28;;;;;;;0.50;0.17;;;;;;;27.55;47.16;101979.31;5070594;28;20032;-70
2022/07/23 10:04:57;;;;;;;0.32;0.13;;;;;;;27.59;47.89;101973.16;5073890;28;20024;-70
2022/07/23 10:07:26;;;;;;;0.10;0.10;;;;;;;27.73;46.85;101973.72;5071632;28;20036;-70
2022/07/23 10:09:52;;;;;;;0.35;0.30;;;;;;;27.68;47.21;101970.91;5075008;28;20035;-70
2022/07/23 10:14:54;;;;;;;0.00;0.00;;;;;;;27.68;46.56;101968.22;5077989;28;20059;-70
2022/07/23 10:17:19;;;;;;;0.68;0.10;;;;;;;28.43;46.19;101966.50;5067370;28;20675;-70
2022/07/23 10:19:45;;;;;;;0.52;0.20;;;;;;;28.79;46.22;101969.88;5078619;28;20032;-70
2022/07/23 10:22:14;;;;;;;0.38;0.28;;;;;;;28.56;45.72;101979.00;5070063;28;20061;-70
2022/07/23 10:25:08;;;;;;;0.25;0.17;;;;;;;28.63;45.26;101975.03;5069330;28;20541;-70
2022/07/23 10:27:44;;;;;;;0.25;0.10;;;;;;;28.50;45.04;101976.19;5023000;28;20037;-70
2022/07/23 10:30:20;;;;;;;2.13;0.30;;;;;;;28.41;45.29;101976.78;5006945;28;20033;-71
2022/07/23 10:32:51;;;;;;;0.65;0.28;;;;;;;27.87;45.36;101980.59;5005059;28;20409;-70
2022/07/23 10:35:36;;;;;;;0.45;0.30;;;;;;;27.44;47.39;101989.91;5011138;28;20030;-70
2022/07/23 10:38:14;;;;;;;1.10;0.20;;;;;;;27.45;48.07;101982.59;5005927;28;20054;-70
2022/07/23 10:41:03;;;;;;;0.60;0.20;;;;;;;27.41;48.24;101982.22;5007270;28;20029;-70
2022/07/23 10:43:29;;;;;;;0.10;0.10;;;;;;;27.46;48.76;101976.13;5009849;28;20064;-70
2022/07/23 10:45:55;;;;;;;0.75;0.38;;;;;;;27.64;47.92;101983.31;5005288;28;20034;-70
2022/07/23 10:48:29;;;;;;;1.95;0.52;;;;;;;27.59;47.93;101975.88;5004192;28;20137;-70
2022/07/23 10:51:14;;;;;;;0.43;0.20;;;;;;;27.31;48.76;101997.41;5007285;28;20041;-70
2022/07/23 10:53:51;;;;;;;0.40;0.20;;;;;;;27.85;48.60;101995.44;5010286;28;20500;-70
2022/07/23 10:56:55;;;;;;;0.98;0.30;;;;;;;28.77;46.50;101991.06;5009568;28;20044;-70
2022/07/23 10:59:21;;;;;;;1.10;0.40;;;;;;;28.58;46.83;101993.16;4998013;28;20080;-70
2022/07/23 11:01:46;;;;;;;3.05;0.50;;;;;;;28.28;47.01;102000.41;5003468;28;20486;-70
2022/07/23 11:04:13;;;;;;;0.47;0.35;;;;;;;27.71;48.09;101994.84;5046561;28;20032;-69
2022/07/23 11:06:50;;;;;;;4.82;0.40;;;;;;;27.43;49.09;101999.09;5078835;28;20036;-70
2022/07/23 11:09:30;;;;;;;1.88;0.20;;;;;;;26.96;49.88;102001.72;5080522;28;20020;-70
2022/07/23 11:12:20;;;;;;;1.02;0.20;;;;;;;26.60;50.56;102000.75;5068980;28;20056;-70
2022/07/23 11:14:57;;;;;;;0.30;0.20;;;;;;;26.26;51.85;101989.50;5072131;28;20029;-70
2022/07/23 11:17:24;;;;;;;0.90;0.25;;;;;;;26.14;52.21;102002.13;5070527;28;20027;-70
2022/07/23 11:20:08;;;;;;;2.55;0.25;;;;;;;25.66;53.69;101989.31;5067712;28;20425;-70
2022/07/23 11:22:35;;;;;;;1.90;0.20;;;;;;;26.11;52.71;101990.94;5070517;28;20028;-70
2022/07/23 11:25:00;;;;;;;0.40;0.20;;;;;;;26.15;53.43;101987.53;5077189;28;20464;-70